Time;durP1;ratioP1;P1;durP2;ratioP2;P2;SDS_P1;SDS_P2;PMS_P1;PMS_P2;Temp;Humidity;BMP_temperature;BMP_pressure;BME280_temperature;BME280_humidity;BME280_pressure;Samples;Min_cycle;Max_cycle;Signal;HPM_P1;HPM_P2
2022/06/03 00:02:17;;;;;;;7.57;6.50;;;10.60;1.00;;;;;;5018360;28;20464;-64
2022/06/03 00:05:04;;;;;;;7.43;6.73;;;10.60;1.00;;;;;;5017781;28;20479;-64
2022/06/03 00:07:44;;;;;;;6.20;5.60;;;10.50;1.00;;;;;;5018316;28;20468;-64
2022/06/03 00:10:30;;;;;;;6.70;6.10;;;10.50;1.00;;;;;;5017341;28;20495;-64
2022/06/03 00:13:08;;;;;;;6.33;5.83;;;10.40;1.00;;;;;;5018242;28;20846;-64
2022/06/03 00:16:02;;;;;;;6.70;6.10;;;10.40;1.00;;;;;;5018183;28;20466;-64
2022/06/03 00:18:56;;;;;;;7.87;6.70;;;10.30;1.00;;;;;;5017952;28;20435;-64
2022/06/03 00:21:54;;;;;;;7.13;6.33;;;10.20;41.80;;;;;;4999005;28;20447;-64
2022/06/03 00:24:32;;;;;;;6.67;6.03;;;10.20;82.00;;;;;;4997752;28;20468;-64
2022/06/03 00:27:20;;;;;;;7.10;6.40;;;10.20;7.20;;;;;;4997414;28;20446;-64
2022/06/03 00:30:02;;;;;;;7.17;6.47;;;10.20;27.00;;;;;;5001296;28;20492;-64
2022/06/03 00:33:15;;;;;;;7.50;6.90;;;10.10;89.40;;;;;;5017420;28;20502;-64
2022/06/03 00:36:04;;;;;;;7.37;6.10;;;10.00;99.90;;;;;;5017607;28;20439;-64
2022/06/03 00:38:53;;;;;;;6.87;6.20;;;10.00;99.90;;;;;;5017410;28;20471;-64
2022/06/03 00:41:39;;;;;;;6.30;5.80;;;10.00;65.30;;;;;;5017385;28;20518;-64
2022/06/03 00:44:26;;;;;;;6.53;5.93;;;9.90;45.00;;;;;;5017490;28;20464;-64
2022/06/03 00:47:13;;;;;;;6.70;5.60;;;9.90;99.90;;;;;;5017915;28;20895;-64
2022/06/03 00:49:52;;;;;;;6.43;5.83;;;9.80;39.20;;;;;;5015007;28;20488;-64
2022/06/03 00:52:50;;;;;;;7.70;5.93;;;9.80;45.60;;;;;;5018016;28;20467;-63
2022/06/03 00:55:48;;;;;;;6.47;5.87;;;9.80;99.90;;;;;;5017563;28;20493;-63
2022/06/03 00:58:48;;;;;;;6.17;5.60;;;9.70;99.90;;;;;;5017217;28;20902;-64
2022/06/03 01:01:21;;;;;;;5.90;5.40;;;9.70;99.90;;;;;;5017367;28;20466;-64
2022/06/03 01:04:22;;;;;;;7.73;6.97;;;9.70;99.90;;;;;;5016461;28;20467;-64
2022/06/03 01:07:01;;;;;;;7.00;6.30;;;9.70;99.90;;;;;;5015096;28;20984;-64
2022/06/03 01:10:01;;;;;;;6.80;5.90;;;9.60;99.90;;;;;;5016005;28;20484;-64
2022/06/03 01:12:54;;;;;;;7.10;6.40;;;9.60;99.90;;;;;;5017592;28;20449;-64
2022/06/03 01:15:34;;;;;;;7.00;6.27;;;9.50;99.90;;;;;;5017448;28;20490;-63
2022/06/03 01:18:25;;;;;;;6.50;5.87;;;9.50;99.90;;;;;;5017862;28;20884;-64
2022/06/03 01:21:19;;;;;;;6.10;5.50;;;9.40;99.90;;;;;;5016549;28;20468;-64
2022/06/03 01:24:32;;;;;;;5.90;5.40;;;9.40;99.90;;;;;;5017255;28;20630;-64
2022/06/03 01:27:31;;;;;;;5.37;4.97;;;9.30;99.90;;;;;;5017173;28;20499;-64
2022/06/03 01:30:21;;;;;;;6.20;5.50;;;9.30;99.90;;;;;;5016925;28;20491;-64
2022/06/03 01:33:24;;;;;;;6.47;5.87;;;9.20;99.90;;;;;;5017245;28;20487;-64
2022/06/03 01:36:18;;;;;;;5.70;5.20;;;9.30;99.90;;;;;;5017236;28;20772;-64
2022/06/03 01:39:03;;;;;;;7.00;6.40;;;9.20;99.90;;;;;;5017232;28;20463;-64
2022/06/03 01:41:50;;;;;;;6.30;5.70;;;9.10;99.90;;;;;;5016268;28;20468;-64
2022/06/03 01:44:47;;;;;;;5.60;5.10;;;9.10;99.90;;;;;;5016809;28;20487;-64
2022/06/03 01:47:44;;;;;;;5.43;4.90;;;9.10;1.00;;;;;;5017038;28;20536;-64
2022/06/03 01:50:26;;;;;;;6.33;5.73;;;9.00;1.00;;;;;;4988622;28;20473;-64
2022/06/03 01:53:35;;;;;;;7.40;6.70;;;9.00;99.90;;;;;;5016886;28;20804;-63
2022/06/03 01:56:34;;;;;;;5.97;5.47;;;9.00;99.90;;;;;;5017028;28;20445;-64
2022/06/03 01:59:15;;;;;;;5.43;4.93;;;9.10;99.90;;;;;;5020515;28;20466;-64
2022/06/03 02:02:33;;;;;;;5.07;4.67;;;9.10;99.90;;;;;;5019915;28;20466;-64
2022/06/03 02:05:27;;;;;;;5.10;4.70;;;9.00;99.90;;;;;;5020077;28;20774;-64
2022/06/03 02:08:20;;;;;;;5.37;4.90;;;9.00;99.90;;;;;;5021047;28;20469;-64
2022/06/03 02:11:12;;;;;;;5.43;4.93;;;9.00;99.90;;;;;;5020247;28;20488;-64
2022/06/03 02:14:06;;;;;;;8.37;5.70;;;8.90;99.90;;;;;;5020254;28;20510;-64
2022/06/03 02:17:13;;;;;;;4.90;4.50;;;8.80;99.90;;;;;;5020459;28;20471;-64
2022/06/03 02:20:01;;;;;;;5.37;4.87;;;8.90;1.00;;;;;;4958965;29;20549;-64
2022/06/03 02:23:11;;;;;;;5.23;4.83;;;8.90;99.90;;;;;;5019195;28;20741;-64
2022/06/03 02:26:00;;;;;;;5.70;5.20;;;8.90;99.90;;;;;;5020143;28;20467;-64
2022/06/03 02:32:07;;;;;;;6.27;5.13;;;8.90;99.90;;;;;;5019587;28;20440;-64
2022/06/03 02:35:02;;;;;;;5.20;4.77;;;8.90;33.40;;;;;;5020260;28;20467;-64
2022/06/03 02:37:59;;;;;;;4.33;3.93;;;8.90;50.70;;;;;;5019869;28;20964;-64
2022/06/03 02:40:56;;;;;;;5.17;4.67;;;8.80;42.90;;;;;;5020249;28;20537;-64
2022/06/03 02:44:10;;;;;;;5.80;4.57;;;8.80;99.90;;;;;;5018593;28;20443;-63
2022/06/03 02:47:07;;;;;;;5.60;4.90;;;8.70;99.90;;;;;;5001789;28;20884;-63
2022/06/03 02:49:56;;;;;;;5.37;4.63;;;8.70;99.90;;;;;;5019866;28;20491;-63
2022/06/03 02:53:04;;;;;;;4.80;4.40;;;8.60;99.90;;;;;;5019570;28;20883;-63
2022/06/03 02:55:56;;;;;;;5.90;5.23;;;8.60;99.90;;;;;;4938828;29;20471;-63
2022/06/03 02:58:55;;;;;;;6.47;5.00;;;8.60;25.60;;;;;;5014180;28;20580;-64
2022/06/03 03:01:56;;;;;;;5.70;5.20;;;8.60;22.70;;;;;;5006631;28;20549;-64
2022/06/03 03:04:47;;;;;;;5.53;4.63;;;8.60;74.90;;;;;;5019169;28;20719;-63
2022/06/03 03:07:44;;;;;;;5.77;5.27;;;8.60;99.90;;;;;;5018996;28;20468;-64
2022/06/03 03:10:23;;;;;;;5.80;5.23;;;8.60;99.90;;;;;;4997968;28;20926;-63
2022/06/03 03:13:25;;;;;;;5.20;4.80;;;8.60;99.90;;;;;;5000385;28;20468;-63
2022/06/03 03:16:37;;;;;;;5.30;4.90;;;8.60;99.90;;;;;;5023706;28;20475;-64
2022/06/03 03:19:43;;;;;;;10.37;5.37;;;8.50;99.90;;;;;;4995890;28;20941;-63
2022/06/03 03:22:32;;;;;;;7.63;5.80;;;8.50;99.90;;;;;;4999978;28;20480;-63
2022/06/03 03:25:24;;;;;;;6.20;5.50;;;8.50;99.90;;;;;;5018221;28;20466;-63
2022/06/03 03:28:24;;;;;;;5.20;4.73;;;8.40;99.90;;;;;;5016103;28;20566;-63
2022/06/03 03:31:07;;;;;;;5.60;5.00;;;8.50;99.90;;;;;;5018537;28;20488;-63
2022/06/03 03:34:03;;;;;;;5.87;4.90;;;8.50;99.90;;;;;;5019046;28;20488;-63
2022/06/03 03:37:09;;;;;;;5.90;5.30;;;8.60;99.90;;;;;;5018688;28;20460;-63
2022/06/03 03:40:05;;;;;;;5.63;4.93;;;8.60;99.90;;;;;;4924703;29;20459;-63
2022/06/03 03:43:14;;;;;;;4.93;4.53;;;8.60;99.90;;;;;;4998942;28;20439;-63
2022/06/03 03:46:11;;;;;;;5.77;5.27;;;8.60;99.90;;;;;;4941627;28;20828;-63
2022/06/03 03:49:16;;;;;;;5.03;4.63;;;8.60;93.70;;;;;;5018730;28;20502;-63
2022/06/03 03:52:06;;;;;;;5.43;4.93;;;8.50;99.90;;;;;;4995760;28;20530;-63
2022/06/03 03:55:07;;;;;;;6.97;5.67;;;8.50;99.90;;;;;;5018065;28;20559;-63
2022/06/03 03:58:12;;;;;;;5.67;5.17;;;8.50;99.90;;;;;;5018513;28;20467;-63
2022/06/03 04:01:23;;;;;;;7.60;5.23;;;8.60;99.90;;;;;;5017848;28;20464;-63
2022/06/03 04:04:33;;;;;;;6.10;5.60;;;8.60;93.40;;;;;;5018681;28;20460;-63
2022/06/03 04:07:36;;;;;;;5.63;5.07;;;8.60;99.90;;;;;;5017506;28;20534;-63
2022/06/03 04:10:38;;;;;;;5.70;5.10;;;8.60;99.90;;;;;;5010903;28;20575;-63
2022/06/03 04:13:32;;;;;;;6.07;5.57;;;8.70;99.90;;;;;;5017167;28;20464;-63
2022/06/03 04:16:39;;;;;;;5.80;5.30;;;8.70;99.90;;;;;;5017885;28;20826;-63
2022/06/03 04:19:45;;;;;;;6.83;5.57;;;8.80;97.90;;;;;;5017878;28;20513;-63
2022/06/03 04:23:02;;;;;;;6.27;5.77;;;8.80;78.70;;;;;;5017492;28;20522;-63
2022/06/03 04:26:08;;;;;;;5.77;5.27;;;8.80;88.60;;;;;;4957045;28;20470;-63
2022/06/03 04:28:57;;;;;;;6.57;5.23;;;8.80;27.30;;;;;;4951903;29;20473;-64
2022/06/03 04:32:23;;;;;;;13.03;5.80;;;8.90;6.50;;;;;;5009568;28;20478;-64
2022/06/03 04:35:21;;;;;;;7.03;5.70;;;9.00;21.90;;;;;;4998398;28;20918;-64
2022/06/03 04:38:31;;;;;;;7.77;5.60;;;9.00;13.00;;;;;;5019035;28;20479;-63
2022/06/03 04:42:04;;;;;;;7.90;6.40;;;9.00;4.40;;;;;;4951998;28;20516;-63
2022/06/03 04:45:13;;;;;;;5.77;5.27;;;9.20;62.80;;;;;;5014706;28;20964;-63
2022/06/03 04:48:24;;;;;;;6.70;5.77;;;9.30;18.60;;;;;;5012372;28;20539;-64
2022/06/03 04:51:29;;;;;;;6.80;6.20;;;9.40;28.20;;;;;;5016615;28;20503;-63
2022/06/03 04:54:34;;;;;;;6.33;5.60;;;9.60;38.70;;;;;;5014245;28;20550;-64
2022/06/03 04:57:41;;;;;;;9.43;6.37;;;9.70;22.60;;;;;;5016276;28;20514;-64
2022/06/03 05:00:38;;;;;;;6.47;5.87;;;9.70;12.00;;;;;;5013530;28;20893;-64
2022/06/03 05:03:53;;;;;;;6.23;5.73;;;9.90;50.10;;;;;;5015250;28;20468;-64
2022/06/03 05:06:58;;;;;;;8.07;6.10;;;10.00;1.70;;;;;;4998977;28;20468;-64
2022/06/03 05:10:01;;;;;;;6.80;5.70;;;10.10;1.00;;;;;;5015267;28;20459;-63
2022/06/03 05:13:06;;;;;;;6.97;6.37;;;10.10;1.00;;;;;;5011391;28;20476;-64
2022/06/03 05:16:11;;;;;;;6.97;6.27;;;10.30;1.00;;;;;;5010496;28;20483;-64
2022/06/03 05:19:23;;;;;;;6.93;6.13;;;10.40;1.00;;;;;;5015012;28;20468;-64
2022/06/03 05:22:26;;;;;;;7.37;6.67;;;10.70;1.00;;;;;;5016653;28;20434;-64
2022/06/03 05:25:30;;;;;;;7.47;6.77;;;10.90;1.00;;;;;;5014021;28;20470;-64
2022/06/03 05:28:28;;;;;;;6.87;6.27;;;11.00;1.00;;;;;;5001110;28;20795;-64
2022/06/03 05:31:34;;;;;;;7.33;6.63;;;11.20;1.00;;;;;;5017209;28;20492;-64
2022/06/03 05:34:34;;;;;;;7.40;6.70;;;11.40;1.00;;;;;;5016407;28;20495;-64
2022/06/03 05:37:30;;;;;;;7.60;6.80;;;11.60;1.00;;;;;;5015190;28;20457;-64
2022/06/03 05:40:30;;;;;;;7.73;7.00;;;11.90;1.00;;;;;;5019471;28;20784;-63
2022/06/03 05:43:18;;;;;;;7.10;6.50;;;12.30;1.00;;;;;;5017880;28;20948;-64
2022/06/03 05:46:05;;;;;;;11.63;6.63;;;12.70;1.00;;;;;;5019367;28;20533;-64
2022/06/03 05:48:59;;;;;;;8.90;6.77;;;13.00;1.00;;;;;;5020737;28;20468;-64
2022/06/03 05:51:40;;;;;;;6.87;6.17;;;13.40;1.00;;;;;;4992801;28;20870;-65
2022/06/03 05:54:21;;;;;;;6.70;5.87;;;13.80;1.00;;;;;;5020352;28;20471;-65
2022/06/03 05:56:53;;;;;;;6.30;5.63;;;14.20;1.00;;;;;;5013707;28;20463;-65
2022/06/03 05:59:39;;;;;;;6.63;6.00;;;14.70;1.00;;;;;;5021021;28;20467;-65
2022/06/03 06:02:17;;;;;;;5.40;5.00;;;15.20;1.00;;;;;;5018245;28;20463;-65
2022/06/03 06:05:12;;;;;;;6.83;6.13;;;15.60;1.00;;;;;;5000624;28;20461;-65
2022/06/03 06:07:49;;;;;;;10.10;6.00;;;16.10;99.90;;;;;;5018530;28;20464;-65
2022/06/03 06:10:35;;;;;;;5.13;4.73;;;16.50;99.90;;;;;;5019407;28;20527;-64
2022/06/03 06:13:29;;;;;;;5.97;5.37;;;16.80;99.90;;;;;;5019266;28;20471;-64
2022/06/03 06:16:15;;;;;;;4.43;4.13;;;17.10;99.90;;;;;;5020193;28;20468;-64
2022/06/03 06:19:03;;;;;;;5.10;4.60;;;17.40;99.90;;;;;;5020332;28;20471;-64
2022/06/03 06:22:03;;;;;;;5.10;4.60;;;17.80;99.90;;;;;;5019849;28;20481;-64
2022/06/03 06:24:51;;;;;;;5.90;3.30;;;18.10;99.90;;;;;;4957281;28;20491;-64
2022/06/03 06:27:49;;;;;;;4.40;3.60;;;18.60;99.90;;;;;;5013008;28;20550;-64
2022/06/03 06:30:26;;;;;;;6.70;3.93;;;18.80;99.90;;;;;;5019772;28;20831;-64
2022/06/03 06:33:13;;;;;;;4.43;4.07;;;18.90;99.90;;;;;;5010864;28;20498;-65
2022/06/03 06:36:22;;;;;;;5.63;3.10;;;19.10;99.90;;;;;;5008513;28;20567;-65
2022/06/03 06:39:06;;;;;;;3.87;3.53;;;19.40;99.90;;;;;;5008794;28;20540;-64
2022/06/03 06:41:44;;;;;;;4.30;3.43;;;19.80;99.90;;;;;;5010756;28;20455;-64
2022/06/03 06:44:35;;;;;;;3.80;3.50;;;19.80;99.90;;;;;;5011842;28;20460;-64
2022/06/03 06:47:18;;;;;;;4.30;3.90;;;20.30;99.90;;;;;;5017328;28;20764;-64
2022/06/03 06:49:57;;;;;;;4.87;4.20;;;20.00;99.90;;;;;;5018874;28;20494;-65
2022/06/03 06:52:41;;;;;;;4.17;3.70;;;20.20;99.90;;;;;;5008002;28;20499;-64
2022/06/03 06:55:18;;;;;;;4.10;3.80;;;20.50;99.90;;;;;;5014809;28;20683;-64
2022/06/03 06:57:48;;;;;;;4.57;4.17;;;21.00;99.90;;;;;;5015118;28;20474;-64
2022/06/03 07:00:24;;;;;;;3.97;3.60;;;21.40;99.90;;;;;;5016427;28;20466;-64
2022/06/03 07:02:57;;;;;;;4.40;3.57;;;21.80;99.90;;;;;;5010307;28;20472;-64
2022/06/03 07:05:30;;;;;;;4.10;3.80;;;21.40;99.90;;;;;;5012087;28;20472;-63
2022/06/03 07:08:02;;;;;;;4.13;3.07;;;21.40;99.90;;;;;;5004564;28;20477;-64
2022/06/03 07:10:38;;;;;;;3.00;2.80;;;22.00;99.90;;;;;;5009163;28;20677;-64
2022/06/03 07:13:11;;;;;;;5.17;3.27;;;22.40;99.90;;;;;;5002351;28;20462;-64
2022/06/03 07:16:04;;;;;;;3.17;2.90;;;22.80;99.90;;;;;;5012925;28;20475;-62
2022/06/03 07:21:38;;;;;;;3.57;3.37;;;23.10;99.90;;;;;;5014043;28;20493;-62
2022/06/03 07:24:13;;;;;;;4.00;3.60;;;23.20;99.90;;;;;;5011080;28;20575;-61
2022/06/03 07:26:46;;;;;;;4.30;3.70;;;23.50;99.90;;;;;;5016291;28;20468;-61
2022/06/03 07:29:20;;;;;;;3.60;3.30;;;23.80;99.90;;;;;;5018731;28;20460;-62
2022/06/03 07:31:54;;;;;;;3.73;3.40;;;23.30;99.90;;;;;;5011192;28;20502;-62
2022/06/03 07:34:28;;;;;;;3.53;3.20;;;22.30;99.90;;;;;;5015747;28;20499;-62
2022/06/03 07:37:03;;;;;;;3.57;3.27;;;22.10;99.90;;;;;;5015296;28;20483;-62
2022/06/03 07:39:53;;;;;;;3.47;3.20;;;22.50;99.90;;;;;;5017836;28;20466;-61
2022/06/03 07:42:35;;;;;;;3.40;3.13;;;23.30;99.90;;;;;;5016516;28;20472;-61
2022/06/03 07:45:27;;;;;;;3.67;3.17;;;24.10;99.90;;;;;;5014190;28;20475;-61
2022/06/03 07:48:00;;;;;;;4.60;3.80;;;24.40;99.90;;;;;;5015176;28;20499;-62
2022/06/03 07:50:31;;;;;;;3.87;3.57;;;23.70;99.90;;;;;;5005837;28;20472;-61
2022/06/03 07:53:02;;;;;;;3.73;3.40;;;23.90;99.90;;;;;;5008503;28;20475;-62
2022/06/03 07:55:35;;;;;;;4.00;3.60;;;23.90;99.90;;;;;;5003827;28;20477;-61
2022/06/03 07:58:05;;;;;;;3.90;3.67;;;23.60;99.90;;;;;;5010101;28;20476;-61
2022/06/03 08:00:36;;;;;;;3.73;3.43;;;23.50;99.90;;;;;;5005749;28;20892;-61
2022/06/03 08:03:07;;;;;;;4.37;3.43;;;23.60;99.90;;;;;;5016212;28;20476;-61
2022/06/03 08:05:35;;;;;;;3.90;3.60;;;23.80;99.90;;;;;;5016609;28;20912;-61
2022/06/03 08:11:04;;;;;;;4.00;3.57;;;24.00;99.90;;;;;;5017019;28;20637;-61
2022/06/03 08:13:47;;;;;;;3.43;3.10;;;23.90;99.90;;;;;;5017957;28;20731;-62
2022/06/03 08:16:34;;;;;;;3.50;3.20;;;24.70;99.90;;;;;;5017270;28;20467;-61
2022/06/03 08:19:07;;;;;;;3.57;3.20;;;25.00;99.90;;;;;;4999809;28;20820;-61
2022/06/03 08:21:41;;;;;;;3.60;3.20;;;25.50;99.90;;;;;;5018053;28;20480;-61
2022/06/03 08:24:11;;;;;;;3.17;2.97;;;26.00;99.90;;;;;;5018313;28;20811;-63
2022/06/03 08:26:43;;;;;;;4.73;3.53;;;25.80;99.90;;;;;;5018065;28;20476;-62
2022/06/03 08:29:25;;;;;;;3.53;3.30;;;25.60;99.90;;;;;;5018170;28;20562;-62
2022/06/03 08:31:57;;;;;;;3.87;3.50;;;25.00;99.90;;;;;;5013935;28;20487;-62
2022/06/03 08:34:28;;;;;;;3.37;3.07;;;25.00;99.90;;;;;;5017588;28;20488;-62
2022/06/03 08:36:59;;;;;;;3.23;3.03;;;25.20;99.90;;;;;;5016749;28;20471;-62
2022/06/03 08:39:32;;;;;;;3.27;2.77;;;25.50;99.90;;;;;;5013371;28;20459;-62
2022/06/03 08:42:20;;;;;;;3.43;3.03;;;25.90;99.90;;;;;;5019922;28;20889;-62
2022/06/03 08:45:10;;;;;;;4.13;3.00;;;26.30;99.90;;;;;;5017365;28;20459;-62
2022/06/03 08:47:41;;;;;;;3.53;3.23;;;26.30;99.90;;;;;;4998424;28;20816;-62
2022/06/03 08:50:22;;;;;;;3.20;3.00;;;26.50;99.90;;;;;;5000606;28;20468;-62
2022/06/03 08:53:01;;;;;;;3.10;2.90;;;26.50;99.90;;;;;;5017721;28;21022;-62
2022/06/03 08:55:40;;;;;;;3.40;3.20;;;26.70;99.90;;;;;;5016859;28;20438;-64
2022/06/03 08:58:34;;;;;;;3.87;3.53;;;27.20;99.90;;;;;;5017144;28;20522;-62
2022/06/03 09:01:18;;;;;;;4.20;3.80;;;27.30;99.90;;;;;;5017548;28;20908;-62
2022/06/03 09:03:52;;;;;;;3.40;3.17;;;26.30;99.90;;;;;;5018028;28;20456;-62
2022/06/03 09:06:35;;;;;;;3.43;3.23;;;26.60;99.90;;;;;;5016485;28;20758;-61
2022/06/03 09:09:11;;;;;;;3.60;3.40;;;26.70;99.90;;;;;;5017561;28;20467;-62
2022/06/03 09:11:45;;;;;;;5.00;3.40;;;27.10;99.90;;;;;;5017022;28;20496;-62
2022/06/03 09:14:28;;;;;;;3.33;3.13;;;27.90;99.90;;;;;;5017155;28;20468;-62
2022/06/03 09:17:10;;;;;;;6.23;2.90;;;28.30;99.90;;;;;;5016189;28;20464;-61
2022/06/03 09:19:41;;;;;;;3.53;3.13;;;28.20;99.90;;;;;;5017036;28;20973;-62
2022/06/03 09:22:14;;;;;;;3.60;3.30;;;27.80;99.90;;;;;;5017047;28;20460;-62
2022/06/03 09:24:45;;;;;;;3.47;2.93;;;28.10;99.90;;;;;;5017158;28;20468;-62
2022/06/03 09:27:16;;;;;;;4.87;3.40;;;27.80;99.90;;;;;;5010680;28;20511;-62
2022/06/03 09:29:48;;;;;;;7.30;3.20;;;28.10;99.90;;;;;;5014042;28;20484;-61
2022/06/03 09:32:17;;;;;;;3.87;3.43;;;28.30;99.90;;;;;;5014889;28;20492;-61
2022/06/03 09:34:48;;;;;;;6.03;3.40;;;27.20;99.90;;;;;;5014627;28;20472;-62
2022/06/03 09:37:20;;;;;;;3.43;3.13;;;26.10;99.90;;;;;;5017404;28;20463;-60
2022/06/03 09:39:51;;;;;;;5.63;3.67;;;25.90;99.90;;;;;;5017563;28;20456;-61
2022/06/03 09:42:23;;;;;;;3.50;2.90;;;25.50;99.90;;;;;;5016550;28;20460;-61
2022/06/03 09:44:53;;;;;;;4.70;3.73;;;26.10;99.90;;;;;;5015786;28;20459;-62
2022/06/03 09:47:23;;;;;;;3.37;3.10;;;26.50;99.90;;;;;;5016731;28;20464;-62
2022/06/03 09:49:52;;;;;;;4.23;3.87;;;26.10;99.90;;;;;;5014091;28;20905;-61
2022/06/03 09:52:25;;;;;;;4.93;3.57;;;27.10;99.90;;;;;;5015067;28;20585;-61
2022/06/03 09:54:54;;;;;;;4.30;3.30;;;28.10;99.90;;;;;;5016690;28;20475;-62
2022/06/03 09:57:26;;;;;;;3.80;3.60;;;28.30;99.90;;;;;;5016864;28;20469;-61
2022/06/03 09:59:57;;;;;;;3.23;2.97;;;28.00;99.90;;;;;;5016836;28;20777;-61
2022/06/03 10:02:26;;;;;;;4.00;3.43;;;27.50;99.90;;;;;;5014540;28;20470;-60
2022/06/03 10:04:53;;;;;;;3.00;2.80;;;26.90;99.90;;;;;;5016474;28;20483;-62
2022/06/03 10:07:25;;;;;;;4.50;3.27;;;27.00;99.90;;;;;;5014187;28;20476;-62
2022/06/03 10:12:52;;;;;;;3.53;3.20;;;27.80;99.90;;;;;;5005975;28;20569;-61
2022/06/03 10:15:41;;;;;;;3.83;3.07;;;28.00;99.90;;;;;;5015847;28;20463;-61
2022/06/03 10:18:16;;;;;;;3.13;2.93;;;27.90;99.90;;;;;;5014568;28;20442;-61
2022/06/03 10:20:43;;;;;;;6.13;3.93;;;28.50;99.90;;;;;;4999052;28;20464;-63
2022/06/03 10:23:12;;;;;;;3.37;3.07;;;29.30;99.90;;;;;;5012366;28;20476;-61
2022/06/03 10:25:42;;;;;;;3.00;2.80;;;29.80;99.90;;;;;;5016625;28;20467;-61
2022/06/03 10:28:13;;;;;;;3.93;2.70;;;29.30;99.90;;;;;;5016541;28;20563;-63
2022/06/03 10:30:42;;;;;;;2.77;2.57;;;29.80;99.90;;;;;;5016525;28;20459;-61
2022/06/03 10:33:17;;;;;;;3.50;2.93;;;30.20;99.90;;;;;;5016538;28;20492;-62
2022/06/03 10:35:51;;;;;;;3.40;3.20;;;30.20;99.90;;;;;;5016944;28;20502;-62
2022/06/03 10:38:22;;;;;;;4.00;3.60;;;29.90;99.90;;;;;;5013681;28;20480;-61
2022/06/03 10:40:50;;;;;;;3.90;3.60;;;29.00;99.90;;;;;;5015838;28;20474;-61
2022/06/03 10:43:23;;;;;;;3.13;2.93;;;28.40;99.90;;;;;;5018575;28;20506;-61
2022/06/03 10:45:50;;;;;;;4.80;3.43;;;28.20;99.90;;;;;;5015473;28;20554;-61
2022/06/03 10:48:29;;;;;;;3.57;3.27;;;28.70;99.90;;;;;;5016868;28;20492;-63
2022/06/03 10:51:14;;;;;;;3.83;3.53;;;29.40;99.90;;;;;;5016002;28;20471;-62
2022/06/03 11:02:05;;;;;;;3.73;3.43;;;29.10;99.90;;;;;;5017946;28;20927;-61
2022/06/03 11:04:38;;;;;;;3.47;3.17;;;28.80;99.90;;;;;;5018314;28;20472;-61
2022/06/03 11:07:23;;;;;;;3.10;2.80;;;29.60;99.90;;;;;;5016193;28;20722;-62
2022/06/03 11:10:04;;;;;;;3.00;2.80;;;30.10;99.90;;;;;;5015787;28;20445;-60
2022/06/03 11:12:32;;;;;;;4.00;2.93;;;29.70;99.90;;;;;;5016847;28;20466;-64
2022/06/03 11:15:02;;;;;;;4.40;3.03;;;29.20;99.90;;;;;;5018159;28;20499;-62
2022/06/03 11:17:36;;;;;;;3.47;3.17;;;29.30;99.90;;;;;;5019527;28;20471;-64
2022/06/03 11:20:18;;;;;;;5.00;3.33;;;29.50;99.90;;;;;;5017909;28;20460;-62
2022/06/03 11:22:46;;;;;;;4.23;3.83;;;29.40;99.90;;;;;;5017577;28;20471;-63
2022/06/03 11:25:22;;;;;;;3.87;3.50;;;29.30;99.90;;;;;;5014947;28;20460;-62
2022/06/03 11:27:52;;;;;;;3.80;3.50;;;29.50;99.90;;;;;;5018593;28;20467;-61
2022/06/03 11:30:28;;;;;;;3.83;3.53;;;29.20;99.90;;;;;;5016993;28;20500;-60
2022/06/03 11:33:02;;;;;;;3.33;3.13;;;28.70;99.90;;;;;;5016264;28;20574;-60
2022/06/03 11:35:39;;;;;;;3.43;3.07;;;28.00;99.90;;;;;;5015973;28;20466;-61
2022/06/03 11:38:12;;;;;;;8.20;3.70;;;28.20;99.90;;;;;;5015737;28;20464;-60
2022/06/03 11:40:50;;;;;;;4.27;3.87;;;27.30;99.90;;;;;;5012672;28;20467;-61
2022/06/03 11:43:23;;;;;;;4.30;3.70;;;27.30;99.90;;;;;;5017044;28;20492;-61
2022/06/03 11:45:57;;;;;;;3.00;2.77;;;28.10;99.90;;;;;;5015637;28;20468;-60
2022/06/03 11:48:30;;;;;;;4.17;3.77;;;28.20;99.90;;;;;;5018971;28;20467;-61
2022/06/03 11:50:58;;;;;;;3.90;3.60;;;28.10;99.90;;;;;;5017686;28;20460;-61
2022/06/03 11:53:28;;;;;;;3.53;3.23;;;27.70;99.90;;;;;;5017732;28;20550;-61
2022/06/03 11:56:00;;;;;;;4.00;3.17;;;27.80;99.90;;;;;;5017734;28;20901;-62
2022/06/03 11:58:44;;;;;;;4.00;3.70;;;28.10;99.90;;;;;;5018554;28;20472;-61
2022/06/03 12:01:18;;;;;;;4.60;4.20;;;28.60;99.90;;;;;;5017920;28;20757;-61
2022/06/03 12:03:55;;;;;;;3.50;3.20;;;29.00;99.90;;;;;;5018715;28;20467;-61
2022/06/03 12:06:28;;;;;;;3.90;3.37;;;29.30;99.90;;;;;;5017223;28;20897;-61
2022/06/03 12:09:03;;;;;;;3.83;3.53;;;28.60;99.90;;;;;;5016822;28;20466;-61
2022/06/03 12:14:36;;;;;;;4.13;3.67;;;28.30;99.90;;;;;;5015051;28;20885;-61
2022/06/03 12:17:36;;;;;;;3.83;3.43;;;27.30;99.90;;;;;;5011751;28;20468;-61
2022/06/03 12:20:35;;;;;;;4.40;3.20;;;27.20;99.90;;;;;;5006589;28;20463;-61
2022/06/03 12:23:52;;;;;;;7.73;3.10;;;27.10;99.90;;;;;;5014809;28;20841;-60
2022/06/03 12:26:26;;;;;;;3.80;2.97;;;27.30;99.90;;;;;;5018130;28;20460;-60
2022/06/03 12:29:03;;;;;;;3.40;3.20;;;27.10;99.90;;;;;;5018031;28;20551;-60
2022/06/03 12:31:47;;;;;;;5.73;3.90;;;26.90;99.90;;;;;;5018485;28;20869;-61
2022/06/03 12:34:23;;;;;;;3.87;3.57;;;26.80;99.90;;;;;;5016206;28;20537;-60
2022/06/03 12:36:54;;;;;;;3.30;3.07;;;27.00;99.90;;;;;;5016861;28;20766;-61
2022/06/03 12:39:27;;;;;;;3.10;2.90;;;27.00;99.90;;;;;;5017559;28;20770;-61
2022/06/03 12:42:04;;;;;;;2.80;2.60;;;26.90;99.90;;;;;;5017774;28;20530;-61
2022/06/03 12:45:21;;;;;;;4.13;3.60;;;26.70;99.90;;;;;;5017820;28;20761;-60
2022/06/03 12:47:50;;;;;;;3.30;3.00;;;26.90;99.90;;;;;;5000831;28;20435;-61
2022/06/03 12:50:37;;;;;;;4.60;3.10;;;27.30;99.90;;;;;;5017644;28;20566;-60
2022/06/03 12:53:29;;;;;;;3.60;3.10;;;27.50;99.90;;;;;;5017577;28;20520;-61
2022/06/03 12:56:01;;;;;;;3.20;3.00;;;27.90;99.90;;;;;;5017514;28;20495;-61
2022/06/03 12:58:44;;;;;;;3.20;2.90;;;28.00;99.90;;;;;;5017698;28;20490;-60
2022/06/03 13:01:28;;;;;;;4.57;2.77;;;27.20;99.90;;;;;;5017700;28;20438;-61
2022/06/03 13:03:55;;;;;;;3.70;3.40;;;26.90;99.90;;;;;;5017357;28;20496;-62
2022/06/03 13:06:28;;;;;;;3.27;2.97;;;26.80;99.90;;;;;;5017184;28;20467;-62
2022/06/03 13:11:46;;;;;;;6.60;3.43;;;27.40;99.90;;;;;;5017372;28;20490;-63
2022/06/03 13:14:32;;;;;;;3.27;3.03;;;28.10;99.90;;;;;;5017619;28;20935;-61
2022/06/03 13:17:01;;;;;;;5.50;3.30;;;28.70;99.90;;;;;;5017604;28;20467;-61
2022/06/03 13:20:01;;;;;;;3.20;3.00;;;29.00;99.90;;;;;;5017447;28;20526;-61
2022/06/03 13:22:51;;;;;;;5.93;3.10;;;29.10;99.90;;;;;;5016516;28;20514;-60
2022/06/03 13:25:33;;;;;;;3.10;2.90;;;28.70;99.90;;;;;;5017118;28;20460;-61
2022/06/03 13:28:22;;;;;;;3.27;3.07;;;28.30;99.90;;;;;;5015713;28;20522;-61
2022/06/03 13:31:18;;;;;;;3.73;3.43;;;28.00;99.90;;;;;;4997307;28;20463;-61
2022/06/03 13:34:19;;;;;;;3.60;2.80;;;28.00;99.90;;;;;;5014498;28;21020;-60
2022/06/03 13:36:58;;;;;;;3.77;3.50;;;28.90;99.90;;;;;;5015689;28;20897;-61
2022/06/03 13:40:08;;;;;;;6.03;3.57;;;29.20;99.90;;;;;;5015904;28;20463;-62
2022/06/03 13:43:05;;;;;;;4.23;3.77;;;29.20;99.90;;;;;;5016021;28;20438;-61
2022/06/03 13:46:11;;;;;;;3.60;3.17;;;29.00;99.90;;;;;;4987989;28;20457;-62
2022/06/03 13:48:55;;;;;;;4.57;3.50;;;29.10;99.90;;;;;;4984484;28;20881;-62
2022/06/03 13:51:48;;;;;;;3.50;3.30;;;29.80;99.90;;;;;;5012950;28;20464;-61
2022/06/03 13:54:22;;;;;;;3.10;2.90;;;29.90;99.90;;;;;;5016648;28;20501;-61
2022/06/03 13:56:57;;;;;;;3.40;3.20;;;30.00;99.90;;;;;;5019832;28;20462;-61
2022/06/03 13:59:26;;;;;;;3.50;3.20;;;29.60;99.90;;;;;;5019760;28;20490;-61
2022/06/03 14:01:58;;;;;;;2.90;2.70;;;29.60;99.90;;;;;;5019342;28;20880;-61
2022/06/03 14:04:35;;;;;;;3.70;3.50;;;28.90;99.90;;;;;;5020297;28;20471;-61
2022/06/03 14:07:08;;;;;;;3.20;2.90;;;29.40;99.90;;;;;;5019543;28;20470;-61
2022/06/03 14:09:39;;;;;;;3.17;2.97;;;29.50;99.90;;;;;;5019924;28;20464;-61
2022/06/03 14:12:27;;;;;;;3.87;3.57;;;29.80;99.90;;;;;;5017987;28;20470;-61
2022/06/03 14:15:02;;;;;;;3.60;3.30;;;29.50;99.90;;;;;;5018628;28;20464;-61
2022/06/03 14:17:34;;;;;;;3.37;3.07;;;29.00;99.90;;;;;;5017675;28;20471;-60
2022/06/03 14:20:11;;;;;;;3.47;3.17;;;28.80;99.90;;;;;;5018371;28;20471;-61
2022/06/03 14:22:44;;;;;;;3.20;3.00;;;29.00;99.90;;;;;;5019687;28;20896;-61
2022/06/03 14:25:19;;;;;;;7.40;3.60;;;28.90;99.90;;;;;;5019861;28;20472;-60
2022/06/03 14:28:01;;;;;;;3.40;3.10;;;28.80;99.90;;;;;;5020828;28;20891;-62
2022/06/03 14:30:42;;;;;;;3.10;2.83;;;28.50;99.90;;;;;;5019944;28;20468;-62
2022/06/03 14:33:10;;;;;;;3.40;3.10;;;28.70;99.90;;;;;;5019278;28;20499;-61
2022/06/03 14:35:41;;;;;;;3.37;3.07;;;28.70;99.90;;;;;;5019589;28;20467;-60
2022/06/03 14:38:21;;;;;;;2.90;2.70;;;28.20;99.90;;;;;;5020243;28;20464;-61
2022/06/03 14:40:51;;;;;;;3.30;3.10;;;28.40;99.90;;;;;;5019556;28;20455;-60
2022/06/03 14:43:24;;;;;;;4.00;3.60;;;27.90;99.90;;;;;;5018194;28;20538;-61
2022/06/03 14:45:57;;;;;;;3.80;3.50;;;27.40;99.90;;;;;;5018914;28;20774;-60
2022/06/03 14:48:33;;;;;;;5.47;3.57;;;27.10;99.90;;;;;;5019274;28;20787;-61
2022/06/03 14:51:16;;;;;;;3.53;3.33;;;26.90;99.90;;;;;;5019975;28;20787;-60